RYR8ZU EPMO-LIRN
Flight info
| Callsign | RYR8ZU |
|---|---|
| Flight time | N/A |
| Altitude | 38000 |
| Route | EVINA M66 BABKO DCT XOMBA DCT VEBAL DCT VELUG/N0443F390 DCT SUXUB/N0428F330 M736 ERIKA |
| Aircraft | B38M/M-SADE3FGILRWY/SB1 |
Departure
| Time | 2026-05-04 10:26 |
|---|---|
| Airport | Warsaw Modlin Airport (EPMO) |
Arrival
| Time | N/A |
|---|---|
| Airport | Naples International Airport (LIRN) |
| Time | Latitude | Longitude | Altitude | Speed | Heading |
|---|---|---|---|---|---|
| 2026-05-04 10:00 | 52.44759 | 20.65418 | 340 ft | 0 kts | 206° |
| 2026-05-04 10:19 | 52.44804 | 20.65396 | 339 ft | 0 kts | 81° |
| 2026-05-04 10:22 | 52.44804 | 20.65399 | 339 ft | 2 kts | 82° |
| 2026-05-04 10:22 | 52.44812 | 20.65492 | 340 ft | 15 kts | 82° |
| 2026-05-04 10:23 | 52.44833 | 20.65729 | 340 ft | 24 kts | 82° |
| 2026-05-04 10:23 | 52.44857 | 20.65975 | 340 ft | 21 kts | 81° |
| 2026-05-04 10:25 | 52.45285 | 20.66909 | 338 ft | 9 kts | 254° |
| 2026-05-04 10:25 | 52.45273 | 20.66783 | 339 ft | 15 kts | 261° |
| 2026-05-04 10:25 | 52.45241 | 20.66462 | 338 ft | 54 kts | 260° |
| 2026-05-04 10:25 | 52.45148 | 20.65481 | 344 ft | 119 kts | 261° |
| 2026-05-04 10:26 | 52.45001 | 20.63886 | 434 ft | 150 kts | 259° |
| 2026-05-04 10:26 | 52.44866 | 20.62181 | 595 ft | 157 kts | 259° |
| 2026-05-04 10:26 | 52.44711 | 20.60268 | 1070 ft | 178 kts | 259° |
| 2026-05-04 10:26 | 52.44525 | 20.58267 | 2005 ft | 176 kts | 257° |
| 2026-05-04 10:27 | 52.44312 | 20.56272 | 2966 ft | 183 kts | 257° |
| 2026-05-04 10:27 | 52.44049 | 20.54165 | 3780 ft | 194 kts | 257° |
| 2026-05-04 10:27 | 52.43764 | 20.51998 | 4822 ft | 194 kts | 256° |
| 2026-05-04 10:27 | 52.43473 | 20.49829 | 5735 ft | 201 kts | 256° |
| 2026-05-04 10:28 | 52.43159 | 20.47525 | 6459 ft | 210 kts | 256° |
| 2026-05-04 10:28 | 52.42971 | 20.45141 | 7262 ft | 220 kts | 277° |
| 2026-05-04 10:28 | 52.43620 | 20.42773 | 7837 ft | 239 kts | 302° |
| 2026-05-04 10:28 | 52.44417 | 20.40331 | 8455 ft | 251 kts | 280° |
| 2026-05-04 10:29 | 52.44285 | 20.37436 | 8974 ft | 268 kts | 248° |
| 2026-05-04 10:29 | 52.43111 | 20.35105 | 9807 ft | 274 kts | 214° |
| 2026-05-04 10:29 | 52.41288 | 20.34196 | 10727 ft | 285 kts | 184° |
| 2026-05-04 10:29 | 52.39289 | 20.34917 | 11271 ft | 309 kts | 160° |
| 2026-05-04 10:30 | 52.37228 | 20.36125 | 11781 ft | 319 kts | 173° |
| 2026-05-04 10:30 | 52.34998 | 20.36520 | 12384 ft | 328 kts | 179° |
| 2026-05-04 10:30 | 52.32709 | 20.36715 | 13248 ft | 329 kts | 181° |
| 2026-05-04 10:30 | 52.30409 | 20.36820 | 14068 ft | 333 kts | 182° |
| 2026-05-04 10:31 | 52.28077 | 20.36860 | 14783 ft | 337 kts | 183° |
| 2026-05-04 10:31 | 52.25719 | 20.36873 | 15555 ft | 341 kts | 183° |
| 2026-05-04 10:32 | 52.10975 | 20.36736 | 19565 ft | 365 kts | 183° |
| 2026-05-04 10:33 | 52.08422 | 20.36707 | 20152 ft | 369 kts | 183° |